EDDN

Nuremberg Airport

Airport
ICAO code
EDDN
IATA Code
NUE
Summary
ICAO Region
EUR
ICAO Territory
Location

Nuremberg, Bavaria, Germany,

Serving
Nuremberg
Elevation
1046 ft
Coordinates
49° 29' 51" N , 11° 4' 37" E
KCC
Cfb
Airport WX
Fog
Metar
Observation
EDDN 131650Z AUTO 04008KT 360V070 CAVOK 27/11 Q1014 BECMG 03005KT
Station
Nuernberg
Date/Time
2022-08-13 16:50:00
Wind direction
40°
Wind speed
08 kts
Lowest cloud amount
clouds and visibility OK
Temperature
27°C
Dew point
11°C
Humidity
36%
QNH
1014 hPa
Weather condition
n/a

Description

International airport 5 km north of the city centre.

Climatology

Temperate Marine climate/Oceanic climate (Köppen climate classification Cfb). Moderately cool summer and comparatively warm winter with a temperature range of only 14°C. Prevailing south-westerly winds from the Atlantic Ocean.

Runways

Designator Length Width Surface Rops
10/28 2700 45 ASP Yes/Yes

SKYbrary Partners:

Safety knowledge contributed by: